Briercrest, Canada
Current Conditions -  °F | °C
As of 2:00 PM on Thursday 23 Oct 2014 (Local Time) from CYMJ Reporting Station
Broken Clouds Broken Clouds  
Wind Chill: 59°   Ceiling: 16000
Heat Index: 59°   Visibility: 15mi
Dew Point: 41°   Wind: 12mph
Humidity: 51%   Direction: 240°WSW
Pressure: 29.65"   Gusts: 21mph
Location:  50.17°N, 105.27°W
Report Text: CYMJ 232000Z 24010G18KT 15SM BKN160 BKN240 15/05 A2965 RMKAC5CI2 SLP055
Loading
Personal Weather Stations






























Interactive Weather Map
Tropical Storm Tracking
New forecast layout! Learn more

10-Day Weather Forecast

Advertisements
Track Severe Weather on mobile